Tiempo atmosférico en la estación meteorológica de Es Mercadal, Illes Balears (77 m.)



Fecha
DESCASC
Temp. máxima en grados centígrados (hora)
DESCASC
Temp. mínima en grados centígrados (hora)
DESCASC
Temp. media en grados centígrados
DESCASC
Racha de viento máxima en m/sg (hora)
DESCASC
Velocidad máxima media en intervalos de 10 minutos(hora)
DESCASC
Precipitaciones diarias en mm
DESCASC
Precipitaciones de 00:00 a 06:00 en mm
DESCASC
Precipitaciones de 06:00 a 12:00 en mm
DESCASC
Precipitaciones de 12:00 a 18:00 en mm
DESCASC
Precipitaciones de 18:00 a 24:00 en mm
DESCASC
06-12-2018 17.2 (12:50) 12 (23:00) 14.6 8.61 (12:50) 5 (12:50) 0 0 0 0 0
05-12-2018 19.6 (14:00) 11.1 (00:30) 15.4 8.61 (20:40) 6.39 (20:40) 0.2 0 0.2 0 0
04-12-2018 18.4 (14:10) 11.8 (22:40) 15.1 5 (04:10) 2.78 (04:00) 0 0 0 0 0
03-12-2018 18.2 (13:50) 12.2 (00:00) 15.2 7.5 (01:20) 5.56 (01:10) 0 0 0 0 0
02-12-2018 17.3 (13:00) 9.9 (00:00) 13.6 7.5 (23:10) 5.28 (23:10) 0 0 0 0 0
01-12-2018 15.1 (12:20) 9.5 (00:00) 12.3 10.83 (03:10) 6.67 (09:20) 1.4 1.4 0 0 0
30-11-2018 16.2 (12:00) 12.4 (00:00) 14.3 16.94 (20:50) 10.28 (21:10) 0.8 0 0 0.8 0
29-11-2018 17.1 (12:30) 9.9 (00:00) 13.5 8.89 (14:20) 5.56 (16:00) 0 0 0 0 0
28-11-2018 17.5 (13:50) 9.4 (00:00) 13.4 8.33 (14:10) 5.56 (13:10) 0 0 0 0 0
27-11-2018 15.1 (14:10) 11.1 (00:00) 13.1 11.39 (01:30) 7.22 (02:10) 0 0 0 0 0
26-11-2018 17.4 (12:10) 10.2 (15:00) 13.8 22.5 (14:30) 13.89 (14:30) 12 1.8 0.4 9.4 0.4
25-11-2018 17.1 (13:00) 9.5 (00:00) 13.3 16.11 (17:50) 11.11 (17:50) 0 0 0 0 0
24-11-2018 16.1 (14:20) 10.3 (00:00) 13.2 5.56 (00:40) 3.61 (12:20) 0 0 0 0 0
23-11-2018 18.9 (13:20) 13.7 (00:00) 16.3 10.83 (10:40) 7.78 (11:20) 0 0 0 0 0
22-11-2018 18.7 (13:40) 12.6 (00:00) 15.7 8.33 (13:20) 6.11 (13:10) 0 0 0 0 0
21-11-2018 17.7 (13:50) 11.3 (00:00) 14.5 10.56 (12:30) 7.5 (12:30) 0.2 0.2 0 0 0
20-11-2018 16.9 (12:20) 9.5 (00:00) 13.2 18.06 (20:40) 10 (20:40) 7.2 0 0 0.4 6.8
19-11-2018 14.9 (00:10) 11.8 (00:00) 13.3 12.78 (13:00) 7.5 (16:10) 36 19.8 12.8 2.8 0.6
18-11-2018 16.5 (12:30) 10.5 (00:00) 13.5 12.5 (19:50) 7.78 (19:20) 0.2 0 0 0.2 0
17-11-2018 17.6 (12:10) 10.8 (00:00) 14.2 10.28 (11:20) 6.67 (11:20) 0 0 0 0 0
16-11-2018 18.4 (14:00) 14.9 (00:00) 16.6 8.06 (10:10) 5.28 (12:50) 0 0 0 0 0
15-11-2018 19.7 (12:40) 16.5 (00:00) 18.1 10.28 (11:30) 7.5 (11:30) 0 0 0 0 0
14-11-2018 21 (13:10) 15.7 (00:00) 18.3 10.28 (19:40) 6.67 (20:10) 0.2 0 0.2 0 0
13-11-2018 22.4 (13:30) 14.3 (00:00) 18.3 4.72 (02:40) 3.61 (02:30) 0 0 0 0 0
12-11-2018 20.6 (13:50) 15.8 (00:00) 18.2 11.39 (11:10) 7.22 (10:50) 0 0 0 0 0
11-11-2018 19.3 (11:30) 13.7 (00:00) 16.5 10.83 (15:20) 7.78 (14:50) 0 0 0 0 0
10-11-2018 18.1 (14:10) 11.9 (00:00) 15 11.11 (13:30) 7.78 (13:40) 0 0 0 0 0
09-11-2018 17.2 (12:10) 11.7 (00:00) 14.5 13.33 (15:10) 7.78 (08:30) 9.4 0 2.6 6.8 0

Gráficas

Temp. máximas Temp. mínimas Temp. medias Precipitaciones Rachas de viento máximas Velocidades máximas media en intervalos de 10 minutos

Datos horarios

Fecha y hora oficial Temperatura (ºC) Velocidad del viento (km/h) Dirección del viento Racha (km/h) Dirección de racha Precipitación (mm) Presión (hPa) Tendencia (hPa) Humedad (%)
2018-12-08 23:00:00 11.4 7 Oeste 19 Sudoeste 0 -- -- 87
2018-12-08 22:00:00 10.9 8 Sudoeste 16 Sudoeste 0 -- -- 89
2018-12-08 21:00:00 10.7 6 Sudoeste 12 Sudoeste 0 -- -- 88
2018-12-08 20:00:00 10.7 6 Sudoeste 9 Sudoeste 0 -- -- 88
2018-12-08 19:00:00 11.6 5 Sudoeste 6 Sudoeste 0 -- -- 86
2018-12-08 18:00:00 12.9 3 Norte 9 Nordeste 0 -- -- 81
2018-12-08 17:00:00 13.4 4 Noroeste 12 Norte 0 -- -- 79
2018-12-08 16:00:00 13.9 6 Norte 17 Norte 0 -- -- 76
2018-12-08 15:00:00 13.8 11 Norte 24 Norte 0 -- -- 75
2018-12-08 14:00:00 13.9 16 Norte 30 Nordeste 0 -- -- 74
2018-12-08 13:00:00 14.3 16 Norte 28 Nordeste 0 -- -- 71
2018-12-08 12:00:00 14.2 17 Nordeste 32 Nordeste 0 -- -- 71
2018-12-08 11:00:00 13.9 18 Nordeste 36 Nordeste 0 -- -- 74
2018-12-08 10:00:00 13.5 20 Nordeste 41 Norte 0 -- -- 74
2018-12-08 09:00:00 13.2 17 Nordeste 31 Norte 0 -- -- 74
2018-12-08 08:00:00 12.8 13 Nordeste 25 Norte 0 -- -- 81
2018-12-08 07:00:00 12.1 8 Nordeste 19 Nordeste 0 -- -- 90
2018-12-08 06:00:00 12.6 3 Nordeste 5 Nordeste 0 -- -- 99
2018-12-08 05:00:00 11.2 3 Sudeste 8 Sur 0 -- -- 99
2018-12-08 04:00:00 12.1 3 Sudeste 5 Sudoeste 0 -- -- 98
2018-12-08 03:00:00 12.1 5 Sudoeste 6 Sudoeste 0 -- -- 97
2018-12-08 02:00:00 12.1 7 Oeste 11 Sudoeste 0 -- -- 98
2018-12-08 01:00:00 12 8 Oeste 10 Oeste 0 -- -- 98
2018-12-08 00:00:00 12.5 6 Sudoeste 11 Sudoeste 0 -- -- 97
2018-12-07 23:00:00 11.3 6 Sudoeste 9 Sudoeste 0 -- -- 97
2018-12-07 22:00:00 11.8 3 Sur 5 Sudeste 0 -- -- 95
2018-12-07 21:00:00 11.6 3 Sudoeste 10 Oeste 0 -- -- 96
2018-12-07 20:00:00 12 5 Sudoeste 8 Sudoeste 0 -- -- 95
2018-12-07 19:00:00 11.9 4 Sur 8 Sudeste 0 -- -- 96
2018-12-07 18:00:00 12.9 2 Sudoeste 5 Sudeste 0 -- -- 93
2018-12-07 17:00:00 14.5 3 Este 14 Oeste 0 -- -- 86
2018-12-07 16:00:00 16.2 12 Oeste 19 Oeste 0 -- -- 80
2018-12-07 15:00:00 15.7 14 Oeste 23 Oeste 0 -- -- 83
2018-12-07 14:00:00 16.3 18 Sudoeste 31 Sudoeste 0 -- -- 76
2018-12-07 13:00:00 16.1 15 Oeste 24 Oeste 0 -- -- 74
2018-12-07 12:00:00 16.7 13 Oeste 24 Oeste 0 -- -- 74
2018-12-07 11:00:00 16 13 Oeste 23 Oeste 0 -- -- 81
2018-12-07 10:00:00 14.8 17 Oeste 25 Oeste 0 -- -- 86
2018-12-07 09:00:00 13.3 12 Oeste 19 Oeste 0 -- -- 92
2018-12-07 08:00:00 12 8 Sudoeste 10 Sudoeste 0.2 -- -- 93
2018-12-07 07:00:00 12.5 3 Sudoeste 6 Oeste 0 -- -- 92
2018-12-07 06:00:00 12.5 2 Sur 6 Sudoeste 0 -- -- 94
2018-12-07 05:00:00 12.1 2 Sudoeste 5 Sur 0 -- -- 95
2018-12-07 04:00:00 12.3 3 Sur 11 Noroeste 0 -- -- 95
2018-12-07 03:00:00 12.6 6 Oeste 11 Oeste 0 -- -- 95
2018-12-07 02:00:00 12.6 4 Sudoeste 16 Oeste 0 -- -- 94
2018-12-07 01:00:00 12.6 4 Oeste 11 Sudoeste 0 -- -- 95
2018-12-07 00:00:00 12.5 6 Sudoeste 13 Oeste 0 -- -- 93
2018-12-06 23:00:00 12 5 Sudoeste 10 Oeste 0 -- -- 94
2018-12-06 22:00:00 12.7 3 Noroeste 6 Noroeste 0 -- -- 95
2018-12-06 21:00:00 12.7 0 Calma 7 Oeste 0 -- -- 97
2018-12-06 20:00:00 12.4 4 Noroeste 8 Norte 0 -- -- 94
2018-12-06 19:00:00 13.2 4 Noroeste 8 Norte 0 -- -- 93
2018-12-06 18:00:00 13.8 4 Noroeste 12 Noroeste 0 -- -- 89
2018-12-06 17:00:00 15.1 6 Noroeste 16 Norte 0 -- -- 85
2018-12-06 16:00:00 16 12 Norte 19 Norte 0 -- -- 82
2018-12-06 15:00:00 16.4 9 Norte 24 Norte 0 -- -- 78
2018-12-06 14:00:00 16.6 17 Norte 30 Norte 0 -- -- 77
2018-12-06 13:00:00 16.9 18 Norte 31 Norte 0 -- -- 78
2018-12-06 12:00:00 17 14 Norte 26 Norte 0 -- -- 82
2018-12-06 11:00:00 16.4 14 Norte 22 Norte 0 -- -- 87
2018-12-06 10:00:00 15.1 12 Norte 19 Norte 0 -- -- 96
2018-12-06 09:00:00 13.2 7 Norte 12 Norte 0 -- -- 99
2018-12-06 08:00:00 12.7 6 Norte 10 Nordeste 0 -- -- 98
2018-12-06 07:00:00 12.5 4 Norte 8 Norte 0 -- -- 97
2018-12-06 06:00:00 13.2 4 Norte 9 Norte 0 -- -- 97
2018-12-06 05:00:00 13.3 6 Norte 10 Norte 0 -- -- 95
2018-12-06 04:00:00 13.2 5 Norte 8 Norte 0 -- -- 91
2018-12-06 03:00:00 13.4 3 Sudoeste 11 Sudoeste 0 -- -- 91
2018-12-06 02:00:00 13.9 5 Sudeste 20 Sudeste 0 -- -- 98
2018-12-06 01:00:00 14.4 8 Sudeste 15 Sur 0 -- -- 99
2018-12-06 00:00:00 14.5 14 Sudeste 21 Sudeste 0 -- -- 99
2018-12-05 23:00:00 14.1 13 Sur 25 Sudoeste 0 -- -- 99
2018-12-05 22:00:00 14.4 17 Sur 27 Sur 0 -- -- 99
2018-12-05 21:00:00 14.5 17 Sur 31 Sudoeste 0 -- -- 99
2018-12-05 20:00:00 13.9 18 Sudoeste 28 Sudoeste 0 -- -- 99
2018-12-05 19:00:00 13.8 17 Sudoeste 22 Sur 0 -- -- 98
2018-12-05 18:00:00 15.1 15 Sur 21 Sur 0 -- -- 97
2018-12-05 17:00:00 16.8 8 Sur 14 Sur 0 -- -- 79
2018-12-05 16:00:00 19 7 Sudoeste 14 Sur 0 -- -- 67
2018-12-05 15:00:00 19.2 9 Sur 13 Sur 0 -- -- 69
2018-12-05 14:00:00 19.6 8 Sudoeste 15 Sur 0 -- -- 73
2018-12-05 13:00:00 19 9 Sudoeste 15 Oeste 0 -- -- 78
2018-12-05 12:00:00 18 9 Sudoeste 15 Sudoeste 0 -- -- 84
2018-12-05 11:00:00 17.3 9 Sudoeste 16 Sudoeste 0 -- -- 84
2018-12-05 10:00:00 15.4 9 Sur 16 Sudoeste 0.2 -- -- 95
2018-12-05 09:00:00 13.5 10 Sudoeste 14 Sudoeste 0 -- -- 99
2018-12-05 08:00:00 12.7 13 Sudoeste 16 Sudoeste 0 -- -- 99
2018-12-05 07:00:00 12.6 6 Sur 15 Sur 0 -- -- 99
2018-12-05 06:00:00 12.5 10 Sur 13 Sur 0 -- -- 99
2018-12-05 05:00:00 12.6 7 Sur 15 Sudoeste 0 -- -- 98
2018-12-05 04:00:00 12.4 10 Sur 13 Sudoeste 0 -- -- 99
2018-12-05 03:00:00 12 8 Sur 12 Sudoeste 0 -- -- 98
2018-12-05 02:00:00 12.6 8 Sudoeste 11 Sudoeste 0 -- -- 96
2018-12-05 01:00:00 11.3 6 Sudoeste 9 Sur 0 -- -- 99
2018-12-05 00:00:00 12.4 3 Sur 7 Sur 0 -- -- 97
2018-12-04 23:00:00 12.2 6 Sudoeste 9 Sudoeste 0 -- -- 97
2018-12-04 22:00:00 12.3 3 Sudoeste 5 Sudoeste 0 -- -- 94
2018-12-04 21:00:00 12.8 3 Sudoeste 5 Sudoeste 0 -- -- 94
2018-12-04 20:00:00 12.7 0 Calma 3 Sudoeste 0 -- -- 93
2018-12-04 19:00:00 13.2 0 Calma 3 Sudoeste 0 -- -- 93
2018-12-04 18:00:00 13.7 0 Calma 5 Nordeste 0 -- -- 91
2018-12-04 17:00:00 15.9 5 Nordeste 12 Este 0 -- -- 81
2018-12-04 16:00:00 17.4 8 Nordeste 12 Nordeste 0 -- -- 76
2018-12-04 15:00:00 17.7 9 Nordeste 12 Nordeste 0 -- -- 75
2018-12-04 14:00:00 18.3 8 Nordeste 12 Nordeste 0 -- -- 75
2018-12-04 13:00:00 17.8 9 Norte 14 Norte 0 -- -- 82
2018-12-04 12:00:00 17.3 10 Norte 14 Norte 0 -- -- 81
2018-12-04 11:00:00 16.9 8 Norte 12 Norte 0 -- -- 82
2018-12-04 10:00:00 16 4 Nordeste 7 Oeste 0 -- -- 84
2018-12-04 09:00:00 13.9 6 Oeste 8 Oeste 0 -- -- 89
2018-12-04 08:00:00 12.6 3 Sur 4 Sudeste 0 -- -- 91
2018-12-04 07:00:00 12.6 4 Sudeste 5 Sudeste 0 -- -- 89
2018-12-04 06:00:00 13.2 0 Calma 10 Noroeste 0 -- -- 83
2018-12-04 05:00:00 14.3 4 Noroeste 18 Noroeste 0 -- -- 76
2018-12-04 04:00:00 14.8 10 Noroeste 17 Noroeste 0 -- -- 74
2018-12-04 03:00:00 13.3 4 Sudoeste 9 Noroeste 0 -- -- 83
2018-12-04 02:00:00 13.3 7 Oeste 10 Sudoeste 0 -- -- 86
2018-12-04 01:00:00 13.1 6 Sudoeste 13 Oeste 0 -- -- 91
2018-12-04 00:00:00 14 6 Oeste 10 Sudoeste 0 -- -- 83
2018-12-03 23:00:00 13.4 4 Sudoeste 11 Oeste 0 -- -- 78
2018-12-03 22:00:00 13.8 4 Sur 13 Oeste 0 -- -- 75
2018-12-03 21:00:00 13.4 6 Oeste 14 Oeste 0 -- -- 82
2018-12-03 20:00:00 13.8 4 Sudoeste 10 Oeste 0 -- -- 85
2018-12-03 19:00:00 14.3 5 Oeste 10 Oeste 0 -- -- 82
2018-12-03 18:00:00 14.3 5 Oeste 10 Oeste 0 -- -- 82
2018-12-03 17:00:00 15.6 5 Oeste 19 Oeste 0 -- -- 74
2018-12-03 16:00:00 17 12 Oeste 20 Oeste 0 -- -- 77
2018-12-03 15:00:00 16.9 13 Oeste 19 Oeste 0 -- -- 72
2018-12-03 14:00:00 18.2 12 Oeste 22 Sudoeste 0 -- -- 71
2018-12-03 13:00:00 17.5 12 Oeste 21 Oeste 0 -- -- 79
2018-12-03 12:00:00 17.5 13 Sudoeste 19 Sudoeste 0 -- -- 77
2018-12-03 11:00:00 16.9 10 Oeste 17 Oeste 0 -- -- 81
2018-12-03 10:00:00 15.6 11 Oeste 19 Oeste 0 -- -- 85
2018-12-03 09:00:00 13.7 4 Sur 9 Sur 0 -- -- 90
2018-12-03 08:00:00 12.3 5 Sur 9 Sur 0 -- -- 93
2018-12-03 07:00:00 13 0 Calma 14 Sudoeste 0 -- -- 92
2018-12-03 06:00:00 12.2 8 Sudoeste 12 Sudoeste 0 -- -- 95
2018-12-03 05:00:00 12.6 3 Sudeste 9 Sudoeste 0 -- -- 97
2018-12-03 04:00:00 12.4 4 Sudeste 9 Sur 0 -- -- 95
2018-12-03 03:00:00 12.6 8 Sur 15 Sudoeste 0 -- -- 94
2018-12-03 02:00:00 13.5 8 Sudoeste 27 Sudoeste 0 -- -- 92
2018-12-03 01:00:00 13.8 18 Sudoeste 26 Sudoeste 0 -- -- 90
2018-12-03 00:00:00 13.4 12 Sudoeste 27 Sudoeste 0 -- -- 86
2018-12-02 23:00:00 13.4 17 Sudoeste 26 Sudoeste 0 -- -- 87
2018-12-02 22:00:00 13.9 14 Sudoeste 25 Sudoeste 0 -- -- 84
2018-12-02 21:00:00 13.3 13 Sur 22 Sur 0 -- -- 87
2018-12-02 20:00:00 13.6 17 Sudoeste 25 Sudoeste 0 -- -- 84
2018-12-02 19:00:00 13.3 15 Sudoeste 21 Sudoeste 0 -- -- 78
2018-12-02 18:00:00 13.1 12 Sur 14 Sur 0 -- -- 77
2018-12-02 17:00:00 14 7 Sur 16 Sur 0 -- -- 72
2018-12-02 16:00:00 16.9 10 Sudoeste 15 Sudoeste 0 -- -- 54
2018-12-02 15:00:00 16.6 9 Oeste 16 Oeste 0 -- -- 57
2018-12-02 14:00:00 17 5 Sudoeste 17 Sudoeste 0 -- -- 59
2018-12-02 13:00:00 17.3 10 Sudoeste 22 Sudoeste 0 -- -- 61
2018-12-02 12:00:00 16.2 16 Sudoeste 26 Sudoeste 0 -- -- 64
2018-12-02 11:00:00 15.9 13 Sudoeste 19 Sur 0 -- -- 66
2018-12-02 10:00:00 14.5 10 Sur 15 Sur 0 -- -- 76
2018-12-02 09:00:00 12.3 7 Sudoeste 12 Sur 0 -- -- 83
2018-12-02 08:00:00 11.7 6 Sur 9 Sudoeste 0 -- -- 84
2018-12-02 07:00:00 11.2 6 Sudoeste 8 Sudoeste 0 -- -- 89
2018-12-02 06:00:00 10.8 6 Sudoeste 11 Sudoeste 0 -- -- 87
2018-12-02 05:00:00 11 4 Sudoeste 6 Sudoeste 0 -- -- 85
2018-12-02 04:00:00 10.5 5 Sudoeste 8 Sudoeste 0 -- -- 86
2018-12-02 03:00:00 10.6 4 Sudoeste 9 Sudoeste 0 -- -- 85
2018-12-02 02:00:00 10.6 6 Sudoeste 10 Sudoeste 0 -- -- 86
2018-12-02 01:00:00 10.7 8 Sudoeste 13 Oeste 0 -- -- 85
2018-12-02 00:00:00 10.6 6 Sudoeste 9 Sudoeste 0 -- -- 85
2018-12-01 23:00:00 10.4 4 Sudoeste 8 Sudoeste 0 -- -- 87
2018-12-01 22:00:00 10.9 5 Sudoeste 9 Oeste 0 -- -- 83
2018-12-01 21:00:00 11 5 Sudoeste 13 Sudoeste 0 -- -- 82
2018-12-01 20:00:00 10.5 9 Oeste 14 Sudoeste 0 -- -- 84
2018-12-01 19:00:00 10.9 11 Sudoeste 15 Sudoeste 0 -- -- 83
2018-12-01 18:00:00 11.6 6 Oeste 11 Oeste 0 -- -- 82
2018-12-01 17:00:00 13 7 Oeste 17 Oeste 0 -- -- 78
2018-12-01 16:00:00 14 12 Oeste 19 Oeste 0 -- -- 77
2018-12-01 15:00:00 14.3 8 Noroeste 14 Norte 0 -- -- 71
2018-12-01 14:00:00 14.3 9 Norte 20 Norte 0 -- -- 71
2018-12-01 13:00:00 14.9 15 Norte 27 Norte 0 -- -- 66
2018-12-01 12:00:00 14.7 19 Norte 34 Norte 0 -- -- 68
2018-12-01 11:00:00 14.7 21 Norte 38 Nordeste 0 -- -- 64
2018-12-01 10:00:00 14.2 22 Norte 37 Norte 0 -- -- 65
2018-12-01 09:00:00 13.3 20 Norte 35 Norte 0 -- -- 68
2018-12-01 08:00:00 12.5 18 Norte 31 Norte 0 -- -- 71
2018-12-01 07:00:00 12.6 19 Norte 33 Norte 0 -- -- 70
2018-12-01 06:00:00 12.5 19 Norte 36 Norte 0 -- -- 72
2018-12-01 05:00:00 12.2 19 Norte 28 Norte 0 -- -- 78
2018-12-01 04:00:00 10.5 8 Oeste 39 Noroeste 0.8 -- -- 93
2018-12-01 03:00:00 11.6 14 Noroeste 27 Noroeste 0.4 -- -- 91
2018-12-01 02:00:00 13.4 13 Noroeste 30 Noroeste 0 -- -- 78
2018-12-01 01:00:00 13.3 15 Noroeste 35 Norte 0.2 -- -- 79
2018-12-01 00:00:00 13.5 23 Norte 46 Norte 0 -- -- 78
2018-11-30 23:00:00 13.9 32 Norte 50 Norte 0 -- -- 71
2018-11-30 22:00:00 13.5 29 Norte 61 Norte 0 -- -- 70
2018-11-30 21:00:00 13.6 28 Norte 61 Norte 0 -- -- 67
2018-11-30 20:00:00 13.3 25 Norte 51 Norte 0 -- -- 72
2018-11-30 19:00:00 13.1 29 Norte 40 Norte 0 -- -- 76
2018-11-30 18:00:00 12.7 23 Norte 44 Norte 0.4 -- -- 86
2018-11-30 17:00:00 13.4 24 Norte 43 Norte 0 -- -- 81
2018-11-30 16:00:00 13.8 20 Norte 32 Norte 0 -- -- 85
2018-11-30 15:00:00 14.4 14 Noroeste 27 Noroeste 0.2 -- -- 84
2018-11-30 14:00:00 14.1 9 Sudoeste 18 Sudoeste 0.2 -- -- 92
2018-11-30 13:00:00 14.9 14 Oeste 18 Oeste 0 -- -- 81
2018-11-30 12:00:00 16.2 11 Sudoeste 18 Oeste 0 -- -- 75
2018-11-30 11:00:00 15.8 13 Sudoeste 25 Sudoeste 0 -- -- 76
2018-11-30 10:00:00 15.8 15 Sudoeste 23 Sudoeste 0 -- -- 75
2018-11-30 09:00:00 14 15 Sudoeste 26 Oeste 0 -- -- 84
2018-11-30 08:00:00 14.2 16 Sudoeste 25 Sudoeste 0 -- -- 82
2018-11-30 07:00:00 13.9 15 Sur 31 Sudoeste 0 -- -- 84
2018-11-30 06:00:00 14.1 19 Sudoeste 33 Sudoeste 0 -- -- 82
2018-11-30 05:00:00 14 19 Sudoeste 32 Sudoeste 0 -- -- 84
2018-11-30 04:00:00 13.9 21 Sur 31 Sur 0 -- -- 85
2018-11-30 03:00:00 13.7 12 Sudoeste 27 Sudoeste 0 -- -- 87
2018-11-30 02:00:00 13.7 14 Sur 27 Sur 0 -- -- 88
2018-11-30 01:00:00 13.7 16 Sur 30 Sur 0 -- -- 89
2018-11-30 00:00:00 13.2 14 Sudoeste 25 Sur 0 -- -- 90
2018-11-29 23:00:00 13.4 14 Sudoeste 21 Sudoeste 0 -- -- 89
2018-11-29 22:00:00 13.3 11 Sur 22 Sur 0 -- -- 89
2018-11-29 21:00:00 13.8 16 Sudoeste 24 Sudoeste 0 -- -- 89
2018-11-29 20:00:00 13.3 12 Sur 17 Sur 0 -- -- 91
2018-11-29 19:00:00 13.7 10 Sudoeste 15 Sur 0 -- -- 89
2018-11-29 18:00:00 13.6 10 Sur 17 Sudoeste 0 -- -- 89
2018-11-29 17:00:00 14.6 10 Sudoeste 27 Sur 0 -- -- 86
2018-11-29 16:00:00 15.5 20 Sur 29 Sur 0 -- -- 81
2018-11-29 15:00:00 16.1 18 Sur 32 Sur 0 -- -- 81
2018-11-29 14:00:00 16.2 19 Sur 30 Sudoeste 0 -- -- 78
2018-11-29 13:00:00 17 14 Sur 26 Sudoeste 0 -- -- 77
2018-11-29 12:00:00 16.4 19 Sur 27 Sudoeste 0 -- -- 75
2018-11-29 11:00:00 16.1 12 Sur 19 Sur 0 -- -- 75
2018-11-29 10:00:00 15.3 5 Sur 10 Sur 0 -- -- 81
2018-11-29 09:00:00 12.6 7 Sur 11 Sur 0 -- -- 88
2018-11-29 08:00:00 10.7 4 Sur 7 Sur 0 -- -- 90
2018-11-29 07:00:00 10.3 4 Sudoeste 6 Sudoeste 0 -- -- 92
2018-11-29 06:00:00 10.6 2 Sur 6 Sur 0 -- -- 91
2018-11-29 05:00:00 10.4 4 Sudoeste 8 Sur 0 -- -- 96
2018-11-29 04:00:00 10.2 0 Calma 5 Sudoeste 0 -- -- 92
2018-11-29 03:00:00 10.5 2 Sudoeste 4 Sudoeste 0 -- -- 94
2018-11-29 02:00:00 10.6 3 Sudoeste 5 Sudoeste 0 -- -- 94
2018-11-29 01:00:00 11 0 Calma 4 Sur 0 -- -- 89
2018-11-29 00:00:00 11.2 2 Oeste 4 Oeste 0 -- -- 89
2018-11-28 23:00:00 10.9 2 Sudoeste 3 Sudoeste 0 -- -- 89
2018-11-28 22:00:00 11.1 2 Sur 5 Oeste 0 -- -- 89
2018-11-28 21:00:00 11.5 3 Oeste 8 Sudoeste 0 -- -- 87
2018-11-28 13:00:00 17.1 17 Oeste 26 Oeste 0 -- -- 58
2018-11-28 12:00:00 16.6 17 Oeste 28 Oeste 0 -- -- 68
2018-11-28 11:00:00 16 8 Sudoeste 14 Sudoeste 0 -- -- 72
2018-11-28 10:00:00 15.5 2 Sur 4 Sur 0 -- -- 73
2018-11-28 09:00:00 13.7 0 Calma 5 Sudoeste 0 -- -- 81
2018-11-28 08:00:00 10.3 4 Sudoeste 6 Sudoeste 0 -- -- 86
2018-11-28 07:00:00 10 3 Sudoeste 5 Sudoeste 0 -- -- 86
2018-11-28 06:00:00 10.4 4 Oeste 6 Sudoeste 0 -- -- 84
2018-11-28 05:00:00 10.7 0 Calma 8 Noroeste 0 -- -- 88
2018-11-28 04:00:00 10.1 3 Sudoeste 9 Noroeste 0 -- -- 88
2018-11-28 03:00:00 10.8 4 Noroeste 8 Norte 0 -- -- 85
2018-11-28 02:00:00 11.2 5 Noroeste 12 Noroeste 0 -- -- 83
2018-11-28 01:00:00 12.5 10 Noroeste 17 Noroeste 0 -- -- 75
2018-11-28 00:00:00 12.3 8 Noroeste 13 Noroeste 0 -- -- 75
2018-11-27 23:00:00 12 9 Noroeste 18 Norte 0 -- -- 75
2018-11-27 22:00:00 12.2 13 Norte 20 Norte 0 -- -- 74
2018-11-27 21:00:00 12.1 10 Norte 20 Noroeste 0 -- -- 81
2018-11-27 20:00:00 12.5 10 Noroeste 18 Noroeste 0 -- -- 77
2018-11-27 19:00:00 11.5 8 Oeste 23 Noroeste 0 -- -- 81
2018-11-27 18:00:00 11.3 6 Oeste 12 Oeste 0 -- -- 81
2018-11-27 17:00:00 13.1 7 Oeste 27 Noroeste 0 -- -- 73
2018-11-27 16:00:00 14.2 12 Noroeste 32 Noroeste 0 -- -- 67
2018-11-27 15:00:00 14.5 22 Noroeste 35 Oeste 0 -- -- 66
2018-11-27 14:00:00 14.8 21 Oeste 35 Oeste 0 -- -- 64
2018-11-27 13:00:00 14.8 18 Noroeste 29 Noroeste 0 -- -- 64
2018-11-27 12:00:00 14.5 14 Norte 29 Norte 0 -- -- 66
2018-11-27 11:00:00 13.9 19 Norte 34 Noroeste 0 -- -- 71
2018-11-27 10:00:00 13.3 17 Noroeste 27 Noroeste 0 -- -- 68
2018-11-27 09:00:00 12.9 17 Norte 27 Norte 0 -- -- 72
2018-11-27 08:00:00 12 14 Norte 24 Norte 0 -- -- 75
2018-11-27 07:00:00 11.9 9 Norte 16 Norte 0 -- -- 78
2018-11-27 06:00:00 11.9 12 Norte 25 Norte 0 -- -- 78
2018-11-27 05:00:00 12.3 15 Noroeste 25 Noroeste 0 -- -- 74
2018-11-27 04:00:00 12.5 19 Norte 35 Noroeste 0 -- -- 71
2018-11-27 03:00:00 12.3 19 Norte 38 Norte 0 -- -- 66
2018-11-27 02:00:00 12.3 22 Norte 41 Norte 0 -- -- 65
2018-11-27 01:00:00 13.1 23 Norte 38 Norte 0 -- -- 66
2018-11-27 00:00:00 12.5 13 Norte 26 Norte 0 -- -- 78
2018-11-26 23:00:00 12.6 14 Noroeste 27 Oeste 0 -- -- 77
2018-11-26 22:00:00 12.6 16 Oeste 30 Oeste 0 -- -- 76
2018-11-26 21:00:00 12.4 23 Oeste 35 Oeste 0 -- -- 77
2018-11-26 20:00:00 11.6 21 Oeste 32 Oeste 0.4 -- -- 84
2018-11-26 19:00:00 12.6 12 Noroeste 43 Norte 0 -- -- 74
2018-11-26 18:00:00 12.3 30 Norte 57 Norte 0 -- -- 77
2018-11-26 17:00:00 12.2 32 Norte 59 Norte 0 -- -- 75
2018-11-26 16:00:00 11.6 24 Norte 57 Norte 0.2 -- -- 73
2018-11-26 15:00:00 10.2 35 Norte 81 Noroeste 2 -- -- 93
2018-11-26 14:00:00 10.8 44 Norte 65 Norte 7.2 -- -- 97
2018-11-26 13:00:00 12.7 33 Norte 57 Norte 0 -- -- 89
2018-11-26 12:00:00 16.6 19 Sudoeste 39 Sudoeste 0 -- -- 79
2018-11-26 11:00:00 15.5 15 Sudoeste 27 Sur 0 -- -- 96
2018-11-26 10:00:00 13.7 11 Sur 21 Sur 0.2 -- -- 98
2018-11-26 09:00:00 12.6 10 Sur 19 Sur 0.2 -- -- 98
2018-11-26 08:00:00 11.9 5 Sur 15 Sur 0 -- -- 98
2018-11-26 07:00:00 11.1 5 Sur 9 Sur 0 -- -- 97
2018-11-26 06:00:00 11.1 4 Sur 14 Sudoeste 0.6 -- -- 96
2018-11-26 05:00:00 11.7 10 Sudoeste 14 Sudoeste 1.2 -- -- 94
2018-11-26 04:00:00 12.4 5 Sudeste 8 Sudeste 0 -- -- 86
2018-11-26 03:00:00 12 3 Sudoeste 9 Sudoeste 0 -- -- 88
2018-11-26 02:00:00 12.2 6 Sudoeste 14 Sur 0 -- -- 88
2018-11-26 01:00:00 11.9 6 Sudoeste 10 Sur 0 -- -- 90
2018-11-26 00:00:00 12.4 5 Oeste 11 Noroeste 0 -- -- 86
2018-11-25 23:00:00 13.7 10 Noroeste 18 Noroeste 0 -- -- 81
2018-11-25 22:00:00 13.9 10 Oeste 30 Oeste 0 -- -- 85
2018-11-25 21:00:00 15.2 19 Oeste 32 Oeste 0 -- -- 80
2018-11-25 20:00:00 15 17 Oeste 42 Oeste 0 -- -- 86
2018-11-25 19:00:00 15.1 30 Oeste 50 Oeste 0 -- -- 87
2018-11-25 18:00:00 16 31 Oeste 58 Oeste 0 -- -- 74
2018-11-25 17:00:00 16.2 22 Oeste 33 Sudoeste 0 -- -- 76
2018-11-25 16:00:00 16.6 21 Sudoeste 37 Oeste 0 -- -- 72
2018-11-25 15:00:00 16.4 23 Oeste 43 Oeste 0 -- -- 70
2018-11-25 14:00:00 16.4 25 Sudoeste 48 Oeste 0 -- -- 68
2018-11-25 13:00:00 17.1 25 Sudoeste 45 Sudoeste 0 -- -- 69
2018-11-25 12:00:00 16 31 Sudoeste 51 Sudoeste 0 -- -- 68
2018-11-25 11:00:00 15 31 Sudoeste 48 Sudoeste 0 -- -- 69
2018-11-25 10:00:00 14.4 21 Sudoeste 32 Sudoeste 0 -- -- 71
2018-11-25 09:00:00 12.4 13 Sudoeste 22 Sudoeste 0 -- -- 77
2018-11-25 08:00:00 11 13 Sudoeste 24 Sudoeste 0 -- -- 81
2018-11-25 07:00:00 9.8 10 Sudoeste 14 Sudoeste 0 -- -- 79
2018-11-25 06:00:00 9.8 8 Sudoeste 17 Sudoeste 0 -- -- 84
2018-11-25 05:00:00 10.6 13 Sudoeste 16 Sudoeste 0 -- -- 82
2018-11-25 04:00:00 9.8 6 Sudoeste 10 Sudoeste 0 -- -- 76
2018-11-25 03:00:00 9.8 7 Oeste 12 Sudoeste 0 -- -- 75
2018-11-25 02:00:00 10.8 4 Sudoeste 6 Sudoeste 0 -- -- 72
2018-11-25 01:00:00 10.4 6 Oeste 9 Oeste 0 -- -- 79
2018-11-25 00:00:00 10.4 5 Sudoeste 7 Oeste 0 -- -- 85
2018-11-24 23:00:00 10.6 5 Sudoeste 7 Oeste 0 -- -- 84
2018-11-24 22:00:00 10.8 4 Oeste 7 Oeste 0 -- -- 83
2018-11-24 21:00:00 10.4 4 Sudoeste 6 Sudoeste 0 -- -- 85
2018-11-24 20:00:00 11.5 3 Sudoeste 4 Sudoeste 0 -- -- 82
2018-11-24 19:00:00 11.6 3 Oeste 5 Oeste 0 -- -- 84
2018-11-24 18:00:00 11.9 3 Oeste 6 Oeste 0 -- -- 83
2018-11-24 17:00:00 13.5 3 Sudoeste 6 Noroeste 0 -- -- 79
2018-11-24 16:00:00 14.3 5 Noroeste 9 Noroeste 0 -- -- 69
2018-11-24 15:00:00 15.3 7 Oeste 17 Oeste 0 -- -- 61
2018-11-24 14:00:00 15.7 9 Noroeste 16 Noroeste 0 -- -- 61
2018-11-24 13:00:00 15.2 7 Noroeste 18 Noroeste 0 -- -- 66
2018-11-24 12:00:00 15.4 10 Noroeste 18 Noroeste 0 -- -- 64
2018-11-24 11:00:00 15 6 Noroeste 12 Norte 0 -- -- 69
2018-11-24 10:00:00 14.6 0 Calma 9 Noroeste 0 -- -- 77
2018-11-24 09:00:00 12.2 4 Oeste 9 Noroeste 0 -- -- 83
2018-11-24 08:00:00 10.8 8 Oeste 9 Oeste 0 -- -- 86
2018-11-24 07:00:00 11.6 4 Sudoeste 9 Oeste 0 -- -- 82
2018-11-24 06:00:00 12.1 4 Oeste 9 Oeste 0 -- -- 82
2018-11-24 05:00:00 13.2 8 Noroeste 13 Noroeste 0 -- -- 76
2018-11-24 04:00:00 12.8 7 Oeste 16 Oeste 0 -- -- 83
2018-11-24 03:00:00 13.3 6 Oeste 16 Oeste 0 -- -- 84
2018-11-24 02:00:00 13.6 7 Oeste 18 Oeste 0 -- -- 83
2018-11-24 01:00:00 14.4 10 Noroeste 20 Noroeste 0 -- -- 83
2018-11-24 00:00:00 14.5 6 Oeste 21 Oeste 0 -- -- 92
2018-11-23 23:00:00 14.8 10 Noroeste 16 Oeste 0 -- -- 92
2018-11-23 22:00:00 14.6 6 Oeste 9 Oeste 0 -- -- 92
2018-11-23 21:00:00 14.4 0 Calma 5 Oeste 0 -- -- 91
2018-11-23 20:00:00 13.9 4 Oeste 8 Sudoeste 0 -- -- 95
2018-11-23 19:00:00 13.7 5 Sudoeste 10 Sudoeste 0 -- -- 92
2018-11-23 18:00:00 15 7 Sudoeste 10 Oeste 0 -- -- 87
2018-11-23 17:00:00 16.8 6 Sudoeste 24 Sudoeste 0 -- -- 85
2018-11-23 16:00:00 18.1 16 Sudoeste 32 Sudoeste 0 -- -- 83
2018-11-23 15:00:00 17.7 23 Sudoeste 33 Sudoeste 0 -- -- 83
2018-11-23 14:00:00 18 19 Sudoeste 38 Sudoeste 0 -- -- 82
2018-11-23 13:00:00 18.2 19 Sudoeste 36 Sur 0 -- -- 81
2018-11-23 12:00:00 18.2 20 Sudoeste 39 Sur 0 -- -- 82
2018-11-23 11:00:00 17.7 23 Sur 39 Sur 0 -- -- 83
2018-11-23 10:00:00 17.8 23 Sur 34 Sur 0 -- -- 80
2018-11-23 09:00:00 16.7 18 Sur 32 Sudeste 0 -- -- 87
2018-11-23 08:00:00 14.9 17 Sudeste 22 Sudeste 0 -- -- 91
2018-11-23 07:00:00 15.3 12 Sur 20 Sur 0 -- -- 90
2018-11-23 06:00:00 15.2 10 Sudeste 18 Sudeste 0 -- -- 98
2018-11-23 05:00:00 14.9 9 Sudeste 14 Sur 0 -- -- 98
2018-11-23 04:00:00 14.9 9 Sudeste 13 Sudeste 0 -- -- 99
2018-11-23 03:00:00 14.4 4 Sur 8 Sur 0 -- -- 100
2018-11-23 02:00:00 14.3 3 Sudoeste 10 Sudeste 0 -- -- 99
2018-11-23 01:00:00 14.1 5 Sur 7 Sur 0 -- -- 98
2018-11-23 00:00:00 15 3 Sur 6 Sudeste 0 -- -- 98
2018-11-22 23:00:00 14.9 0 Calma 9 Sur 0 -- -- 97
2018-11-22 22:00:00 14.6 7 Sur 9 Sur 0 -- -- 98
2018-11-22 21:00:00 15.2 8 Sur 13 Sudeste 0 -- -- 95
2018-11-22 20:00:00 15.5 9 Sur 12 Sur 0 -- -- 93
2018-11-22 19:00:00 15.3 10 Sudeste 13 Sudeste 0 -- -- 91
2018-11-22 18:00:00 15.6 3 Sudeste 12 Sudeste 0 -- -- 89
2018-11-22 17:00:00 16.2 6 Sur 13 Sur 0 -- -- 88
2018-11-22 16:00:00 16.9 10 Sur 16 Sudoeste 0 -- -- 86
2018-11-22 15:00:00 17.2 11 Sudoeste 22 Sudoeste 0 -- -- 83
2018-11-22 14:00:00 18.1 17 Sudoeste 30 Sudoeste 0 -- -- 78
2018-11-22 13:00:00 18.3 17 Sur 27 Sudoeste 0 -- -- 80
2018-11-22 12:00:00 17.1 13 Sudoeste 22 Sudoeste 0 -- -- 86
2018-11-22 11:00:00 16.5 12 Sudoeste 18 Sur 0 -- -- 93
2018-11-22 10:00:00 15 6 Sur 10 Sur 0 -- -- 97
2018-11-22 09:00:00 13.8 2 Sudoeste 8 Sur 0 -- -- 99
2018-11-22 08:00:00 13.3 3 Sudoeste 8 Sudoeste 0 -- -- 98
2018-11-22 07:00:00 12.9 8 Sur 10 Sur 0 -- -- 98
2018-11-22 06:00:00 12.8 7 Sur 11 Sudoeste 0 -- -- 97
2018-11-22 05:00:00 12.7 6 Sudoeste 11 Sur 0 -- -- 96
2018-11-22 04:00:00 13.1 6 Sudoeste 10 Sur 0 -- -- 95
2018-11-22 03:00:00 12.8 10 Sur 13 Sudoeste 0 -- -- 94
2018-11-22 02:00:00 12.7 7 Sudoeste 12 Sudoeste 0 -- -- 94
2018-11-22 01:00:00 12.9 5 Sudoeste 12 Sudoeste 0 -- -- 93
2018-11-22 00:00:00 12.6 8 Oeste 11 Sudoeste 0 -- -- 93
2018-11-21 23:00:00 12.7 5 Sudoeste 11 Sudoeste 0 -- -- 91
2018-11-21 22:00:00 13.1 10 Sudoeste 14 Sudoeste 0 -- -- 88
2018-11-21 21:00:00 12.9 6 Sudoeste 10 Sudoeste 0 -- -- 84
2018-11-21 20:00:00 13.9 3 Sur 14 Sudoeste 0 -- -- 75
2018-11-21 19:00:00 13.7 9 Sudoeste 19 Sudoeste 0 -- -- 77
2018-11-21 18:00:00 14.4 9 Sudoeste 21 Sudoeste 0 -- -- 75
2018-11-21 17:00:00 15.3 13 Oeste 23 Sudoeste 0 -- -- 75
2018-11-21 16:00:00 16.6 17 Sudoeste 34 Sudoeste 0 -- -- 68
2018-11-21 15:00:00 16.7 23 Sudoeste 33 Sudoeste 0 -- -- 68
2018-11-21 14:00:00 17.3 23 Oeste 36 Oeste 0 -- -- 63
2018-11-21 13:00:00 17.1 22 Oeste 38 Oeste 0 -- -- 69
2018-11-21 12:00:00 16.7 21 Oeste 34 Sudoeste 0 -- -- 70
2018-11-21 11:00:00 16 17 Sudoeste 25 Sudoeste 0 -- -- 74
2018-11-21 10:00:00 15.4 14 Sudoeste 23 Sudoeste 0 -- -- 77
2018-11-21 09:00:00 14.2 13 Sudoeste 22 Sudoeste 0 -- -- 79
2018-11-21 08:00:00 13.1 15 Sudoeste 24 Sudoeste 0 -- -- 86
2018-11-21 07:00:00 12.9 15 Sudoeste 19 Sudoeste 0 -- -- 89
2018-11-21 06:00:00 12.8 13 Oeste 23 Sudoeste 0 -- -- 90
2018-11-21 05:00:00 12.8 14 Oeste 24 Sudoeste 0 -- -- 89
2018-11-21 04:00:00 12.5 13 Sudoeste 24 Sudoeste 0 -- -- 92
2018-11-21 03:00:00 12.9 17 Sudoeste 24 Sudoeste 0 -- -- 87
2018-11-21 02:00:00 11.8 13 Sudoeste 20 Sudoeste 0 -- -- 95
2018-11-21 01:00:00 11.8 13 Sudoeste 20 Sudoeste 0.2 -- -- 96
2018-11-21 00:00:00 11.5 3 Sudeste 45 Oeste 1.8 -- -- 98
2018-11-20 23:00:00 13.6 8 Sudoeste 39 Sur 3 -- -- 97
2018-11-20 22:00:00 13.9 15 Sur 31 Sudoeste 0 -- -- 90
2018-11-20 21:00:00 13 22 Sudoeste 65 Sudoeste 2 -- -- 95
2018-11-20 20:00:00 15.8 25 Sudoeste 42 Sudoeste 0 -- -- 83
2018-11-20 19:00:00 15.9 30 Sudoeste 41 Sudoeste 0 -- -- 80
2018-11-20 18:00:00 15.5 24 Sudoeste 37 Sudoeste 0 -- -- 83
2018-11-20 17:00:00 15.2 23 Sudoeste 37 Sudoeste 0.2 -- -- 88
2018-11-20 16:00:00 14.1 21 Sur 35 Sur 0.2 -- -- 91
2018-11-20 15:00:00 14.8 25 Sudoeste 48 Sudoeste 0 -- -- 86
2018-11-20 14:00:00 15.6 29 Sudoeste 46 Sudoeste 0 -- -- 79
2018-11-20 13:00:00 16.1 24 Sudoeste 41 Sur 0 -- -- 77
2018-11-20 12:00:00 16.1 21 Sur 31 Sur 0 -- -- 76
2018-11-20 11:00:00 15.2 19 Sudoeste 29 Sudoeste 0 -- -- 74
2018-11-20 10:00:00 14.4 11 Sur 15 Sur 0 -- -- 76
2018-11-20 09:00:00 12.1 9 Sur 13 Sur 0 -- -- 83
2018-11-20 08:00:00 9.9 4 Sudoeste 6 Sudoeste 0 -- -- 86
2018-11-20 07:00:00 10.3 8 Sudoeste 10 Sudoeste 0 -- -- 86
2018-11-20 06:00:00 9.8 7 Sudoeste 10 Sudoeste 0 -- -- 87
2018-11-20 05:00:00 9.6 5 Oeste 8 Oeste 0 -- -- 87
2018-11-20 04:00:00 9.8 5 Oeste 7 Oeste 0 -- -- 86
2018-11-20 03:00:00 10.8 0 Calma 9 Noroeste 0 -- -- 81
2018-11-20 02:00:00 11.9 8 Noroeste 20 Norte 0 -- -- 77
2018-11-20 01:00:00 12.2 11 Norte 25 Norte 0 -- -- 79
2018-11-20 00:00:00 12.7 13 Norte 23 Norte 0 -- -- 78
2018-11-19 23:00:00 13 14 Norte 27 Norte 0 -- -- 80
2018-11-19 22:00:00 12.9 13 Nordeste 24 Norte 0 -- -- 88
2018-11-19 21:00:00 12.3 11 Nordeste 23 Nordeste 0.2 -- -- 95
2018-11-19 20:00:00 12.4 15 Nordeste 29 Nordeste 0.4 -- -- 94
2018-11-19 19:00:00 12.6 17 Nordeste 32 Nordeste 0 -- -- 88
2018-11-19 18:00:00 12.4 24 Nordeste 40 Este 0 -- -- 92
2018-11-19 17:00:00 12 22 Nordeste 45 Este 0.2 -- -- 94
2018-11-19 16:00:00 12.3 22 Este 43 Este 0.6 -- -- 94
2018-11-19 15:00:00 12.6 21 Nordeste 35 Nordeste 1.2 -- -- 95
2018-11-19 14:00:00 12.7 22 Nordeste 45 Este 0.4 -- -- 91
2018-11-19 13:00:00 12.8 26 Este 46 Este 0.4 -- -- 89
2018-11-19 12:00:00 13.5 20 Este 41 Este 0 -- -- 91
2018-11-19 11:00:00 13.6 24 Este 46 Este 0 -- -- 90
2018-11-19 10:00:00 13.4 22 Este 34 Este 0.2 -- -- 93
2018-11-19 09:00:00 12.7 18 Este 40 Este 0.6 -- -- 97
2018-11-19 08:00:00 12.5 17 Este 36 Este 5.6 -- -- 98
2018-11-19 07:00:00 12.3 25 Nordeste 38 Nordeste 6.4 -- -- 98
2018-11-19 06:00:00 12.6 23 Nordeste 41 Nordeste 8.2 -- -- 98
2018-11-19 05:00:00 13.4 14 Este 36 Este 3.8 -- -- 96
2018-11-19 04:00:00 13.3 21 Este 35 Este 2.6 -- -- 95
2018-11-19 03:00:00 13.4 13 Este 37 Este 0.6 -- -- 95
2018-11-19 02:00:00 13.4 21 Este 39 Este 1 -- -- 93
2018-11-19 01:00:00 13.3 24 Este 44 Este 3.6 -- -- 92
2018-11-19 00:00:00 14.8 18 Este 31 Este 0 -- -- 79
2018-11-18 23:00:00 14.5 15 Este 36 Este 0 -- -- 78
2018-11-18 22:00:00 14.8 25 Este 39 Este 0 -- -- 79
2018-11-18 21:00:00 14.2 15 Este 39 Este 0 -- -- 78
2018-11-18 20:00:00 14.3 19 Este 45 Este 0 -- -- 78
2018-11-18 19:00:00 14.7 26 Este 38 Este 0 -- -- 78
2018-11-18 18:00:00 14.4 20 Este 32 Este 0 -- -- 81
2018-11-18 17:00:00 14.6 19 Este 37 Este 0 -- -- 79
2018-11-18 16:00:00 15.2 18 Este 34 Este 0.2 -- -- 76
2018-11-18 15:00:00 14.6 12 Este 33 Sudeste 0 -- -- 81
2018-11-18 14:00:00 14.9 17 Sudeste 36 Sudeste 0 -- -- 79
2018-11-18 13:00:00 16.4 23 Este 37 Nordeste 0 -- -- 68
2018-11-18 12:00:00 15.6 18 Este 35 Este 0 -- -- 72
2018-11-18 11:00:00 16 20 Este 32 Este 0 -- -- 71
2018-11-18 10:00:00 15.2 11 Sudeste 23 Sudeste 0 -- -- 78
2018-11-18 09:00:00 13.7 8 Sudeste 15 Sudeste 0 -- -- 87
2018-11-18 08:00:00 12.4 7 Sudeste 33 Este 0 -- -- 86
2018-11-18 07:00:00 13 25 Este 40 Este 0 -- -- 85
2018-11-18 06:00:00 12.7 22 Este 35 Este 0 -- -- 81
2018-11-18 05:00:00 12.1 10 Este 19 Este 0 -- -- 85
2018-11-18 04:00:00 12.6 11 Este 22 Este 0 -- -- 83
2018-11-18 03:00:00 11.5 12 Nordeste 17 Este 0 -- -- 87
2018-11-18 02:00:00 10.7 0 Calma 7 Nordeste 0 -- -- 93
2018-11-18 01:00:00 11.1 3 Nordeste 14 Este 0 -- -- 91
2018-11-18 00:00:00 12.2 8 Este 17 Este 0 -- -- 87
2018-11-17 23:00:00 11.2 7 Oeste 9 Oeste 0 -- -- 89
2018-11-17 22:00:00 11.7 3 Sudeste 15 Nordeste 0 -- -- 87
2018-11-17 21:00:00 13 8 Nordeste 19 Nordeste 0 -- -- 80
2018-11-17 20:00:00 12.8 11 Nordeste 20 Nordeste 0 -- -- 81
2018-11-17 19:00:00 12.8 5 Nordeste 10 Nordeste 0 -- -- 81
2018-11-17 18:00:00 13.6 5 Nordeste 25 Nordeste 0 -- -- 79
2018-11-17 17:00:00 14.8 12 Nordeste 25 Nordeste 0 -- -- 75
2018-11-17 16:00:00 15.3 18 Nordeste 30 Nordeste 0 -- -- 74
2018-11-17 15:00:00 15.7 17 Nordeste 28 Nordeste 0 -- -- 74
2018-11-17 14:00:00 15.9 15 Nordeste 32 Nordeste 0 -- -- 73
2018-11-17 13:00:00 16.2 21 Nordeste 37 Nordeste 0 -- -- 71
2018-11-17 12:00:00 17.3 22 Nordeste 37 Nordeste 0 -- -- 70
2018-11-17 11:00:00 16.8 18 Nordeste 32 Nordeste 0 -- -- 76
2018-11-17 10:00:00 16.8 15 Nordeste 24 Nordeste 0 -- -- 77
2018-11-17 09:00:00 13.8 0 Calma 4 Sur 0 -- -- 86
2018-11-17 08:00:00 11.6 2 Noroeste 5 Oeste 0 -- -- 92
2018-11-17 07:00:00 10.8 2 Noroeste 6 Nordeste 0 -- -- 92
2018-11-17 06:00:00 11.6 0 Calma 4 Noroeste 0 -- -- 88
2018-11-17 05:00:00 12.3 0 Calma 4 Noroeste 0 -- -- 86
2018-11-17 04:00:00 13.2 4 Nordeste 6 Norte 0 -- -- 83
2018-11-17 03:00:00 14.4 5 Norte 10 Nordeste 0 -- -- 78
2018-11-17 02:00:00 14.9 6 Nordeste 15 Nordeste 0 -- -- 79
2018-11-17 01:00:00 15 12 Nordeste 20 Nordeste 0 -- -- 80
2018-11-17 00:00:00 15.4 13 Nordeste 24 Nordeste 0 -- -- 82
2018-11-16 23:00:00 15.7 13 Nordeste 28 Nordeste 0 -- -- 83
2018-11-16 22:00:00 15.8 14 Nordeste 24 Nordeste 0 -- -- 85
2018-11-16 21:00:00 15.7 16 Nordeste 28 Nordeste 0 -- -- 87
2018-11-16 20:00:00 15 7 Nordeste 13 Nordeste 0 -- -- 90
2018-11-16 19:00:00 15 7 Nordeste 13 Nordeste 0 -- -- 91
2018-11-16 18:00:00 15.7 8 Norte 13 Norte 0 -- -- 89
2018-11-16 17:00:00 16.7 10 Nordeste 18 Norte 0 -- -- 84
2018-11-16 16:00:00 17.5 10 Nordeste 23 Nordeste 0 -- -- 81
2018-11-16 15:00:00 17.6 13 Nordeste 25 Nordeste 0 -- -- 78
2018-11-16 14:00:00 18.4 12 Nordeste 27 Nordeste 0 -- -- 74
2018-11-16 13:00:00 17.6 18 Nordeste 28 Nordeste 0 -- -- 78
2018-11-16 12:00:00 17.7 16 Nordeste 28 Nordeste 0 -- -- 79
2018-11-16 11:00:00 17.5 19 Nordeste 29 Nordeste 0 -- -- 83
2018-11-16 10:00:00 17.1 17 Nordeste 27 Nordeste 0 -- -- 86
2018-11-16 09:00:00 17.1 7 Nordeste 15 Este 0 -- -- 87
2018-11-16 08:00:00 15.5 9 Nordeste 14 Nordeste 0 -- -- 93
2018-11-16 07:00:00 15.4 7 Nordeste 17 Nordeste 0 -- -- 94
2018-11-16 06:00:00 15.1 8 Nordeste 13 Nordeste 0 -- -- 96
2018-11-16 05:00:00 15 8 Nordeste 14 Nordeste 0 -- -- 94
2018-11-16 04:00:00 15.7 9 Nordeste 21 Nordeste 0 -- -- 93
2018-11-16 03:00:00 16.2 11 Este 23 Este 0 -- -- 92
2018-11-16 02:00:00 16.1 15 Este 24 Este 0 -- -- 92
2018-11-16 01:00:00 16.6 13 Este 23 Este 0 -- -- 92
2018-11-16 00:00:00 17 14 Este 23 Este 0 -- -- 90
2018-11-15 23:00:00 16.6 11 Este 18 Este 0 -- -- 93
2018-11-15 22:00:00 16.8 12 Este 20 Este 0 -- -- 92
2018-11-15 21:00:00 17 11 Este 26 Este 0 -- -- 91
2018-11-15 20:00:00 17.3 10 Este 28 Este 0 -- -- 92
2018-11-15 19:00:00 17.3 21 Este 33 Este 0 -- -- 91
2018-11-15 18:00:00 17.3 17 Este 32 Este 0 -- -- 90
2018-11-15 17:00:00 17.7 19 Este 35 Este 0 -- -- 89
2018-11-15 16:00:00 18.1 17 Este 36 Este 0 -- -- 89
2018-11-15 15:00:00 18.6 21 Este 36 Este 0 -- -- 85
2018-11-15 14:00:00 18.9 19 Este 37 Este 0 -- -- 86
2018-11-15 13:00:00 19.5 18 Este 31 Este 0 -- -- 84
2018-11-15 12:00:00 19.3 21 Este 37 Sudeste 0 -- -- 83
2018-11-15 11:00:00 18.8 22 Este 36 Sudeste 0 -- -- 86
2018-11-15 10:00:00 18.6 22 Este 36 Sudeste 0 -- -- 87
2018-11-15 09:00:00 18.1 22 Este 33 Este 0 -- -- 92
2018-11-15 08:00:00 17.2 18 Este 33 Sudeste 0 -- -- 95
2018-11-15 07:00:00 17.1 22 Este 33 Este 0 -- -- 94
2018-11-15 06:00:00 17.2 12 Este 27 Sudeste 0 -- -- 94
2018-11-15 05:00:00 17 6 Este 26 Este 0 -- -- 95
2018-11-15 04:00:00 17.1 18 Este 32 Este 0 -- -- 94
2018-11-15 03:00:00 17.1 11 Este 31 Este 0 -- -- 94
2018-11-15 02:00:00 17.1 18 Este 37 Este 0 -- -- 94
2018-11-15 01:00:00 17.1 17 Este 34 Sudeste 0 -- -- 94
2018-11-15 00:00:00 17.3 21 Este 32 Este 0 -- -- 93
2018-11-14 23:00:00 17.4 19 Este 36 Este 0 -- -- 92
2018-11-14 22:00:00 17.4 16 Este 32 Sudeste 0 -- -- 93
2018-11-14 21:00:00 17.6 21 Este 35 Este 0 -- -- 92
2018-11-14 20:00:00 17.6 18 Este 37 Este 0 -- -- 92
2018-11-14 19:00:00 17.6 21 Este 33 Este 0 -- -- 93
2018-11-14 18:00:00 17.7 16 Este 30 Este 0 -- -- 91
2018-11-14 17:00:00 17.8 12 Este 33 Sudeste 0 -- -- 90
2018-11-14 16:00:00 18.4 21 Este 33 Este 0 -- -- 86
2018-11-14 15:00:00 19.1 20 Este 30 Este 0 -- -- 82
2018-11-14 14:00:00 19.8 16 Este 29 Este 0 -- -- 80
2018-11-14 13:00:00 20.9 11 Sudeste 22 Este 0 -- -- 74
2018-11-14 12:00:00 20 11 Sudeste 23 Sudeste 0 -- -- 82
2018-11-14 11:00:00 19.3 13 Sudeste 24 Sudeste 0 -- -- 87
2018-11-14 10:00:00 18.6 10 Este 17 Sudeste 0 -- -- 94
2018-11-14 09:00:00 17.1 3 Sudoeste 8 Nordeste 0 -- -- 99
2018-11-14 08:00:00 16.1 2 Sur 7 Este 0 -- -- 100
2018-11-14 07:00:00 16 2 Noroeste 24 Este 0.2 -- -- 100
2018-11-14 06:00:00 15.9 12 Sudeste 23 Sudeste 0 -- -- 100
2018-11-14 05:00:00 16.1 12 Sudeste 24 Sudeste 0 -- -- 100
2018-11-14 04:00:00 15.8 0 Calma 15 Sudeste 0 -- -- 100
2018-11-14 03:00:00 16.1 8 Sudeste 20 Sudeste 0 -- -- 100
2018-11-14 02:00:00 16.3 12 Sudeste 17 Sudeste 0 -- -- 100
2018-11-14 01:00:00 16.1 13 Sudeste 20 Sudeste 0 -- -- 100
2018-11-14 00:00:00 16.1 11 Sudeste 15 Sudeste 0 -- -- 100
2018-11-13 23:00:00 16.5 5 Sudeste 8 Sur 0 -- -- 100
2018-11-13 22:00:00 15.4 2 Sudeste 6 Sudoeste 0 -- -- 99
2018-11-13 21:00:00 16 9 Sudeste 13 Sur 0 -- -- 99
2018-11-13 20:00:00 15.3 0 Calma 4 Oeste 0 -- -- 94
2018-11-13 19:00:00 16.1 0 Calma 4 Oeste 0 -- -- 90
2018-11-13 18:00:00 17.3 3 Sur 11 Sudeste 0 -- -- 83
2018-11-13 17:00:00 18.7 3 Sudoeste 6 Sudeste 0 -- -- 74
2018-11-13 16:00:00 20.3 3 Este 13 Este 0 -- -- 66
2018-11-13 15:00:00 21.3 7 Este 14 Este 0 -- -- 61
2018-11-13 14:00:00 22.2 6 Este 10 Este 0 -- -- 60
2018-11-13 13:00:00 21.8 5 Nordeste 10 Sur 0 -- -- 65
2018-11-13 12:00:00 20.3 3 Norte 9 Norte 0 -- -- 80
2018-11-13 11:00:00 19.3 2 Nordeste 5 Este 0 -- -- 88
2018-11-13 10:00:00 17.8 4 Sur 6 Sudeste 0 -- -- 99
2018-11-13 09:00:00 16 2 Sudeste 9 Sur 0 -- -- 100
2018-11-13 08:00:00 14.3 5 Sudeste 8 Sur 0 -- -- 99
2018-11-13 07:00:00 14.8 5 Sudoeste 8 Sudoeste 0 -- -- 100
2018-11-13 06:00:00 15.3 3 Sudoeste 6 Sur 0 -- -- 100
2018-11-13 05:00:00 15.6 4 Sur 9 Sur 0 -- -- 99
2018-11-13 04:00:00 16.2 5 Sur 15 Sudeste 0 -- -- 99
2018-11-13 03:00:00 16.4 10 Sudeste 17 Sudeste 0 -- -- 99
2018-11-13 02:00:00 16.5 12 Sudeste 16 Sudeste 0 -- -- 99
2018-11-13 01:00:00 16.4 10 Sur 16 Sudeste 0 -- -- 99
2018-11-13 00:00:00 16.4 9 Sudeste 15 Sur 0 -- -- 98
2018-11-12 23:00:00 16.3 10 Sudeste 20 Sudeste 0 -- -- 97
2018-11-12 22:00:00 16.1 11 Sudeste 15 Sudeste 0 -- -- 96
2018-11-12 21:00:00 16.1 8 Sudeste 16 Sudeste 0 -- -- 94
2018-11-12 20:00:00 16.3 8 Sur 18 Sudeste 0 -- -- 93
2018-11-12 19:00:00 16.5 10 Sudeste 22 Sudeste 0 -- -- 93
2018-11-12 18:00:00 17.1 14 Sudeste 25 Sudeste 0 -- -- 90
2018-11-12 17:00:00 18.3 20 Sudeste 30 Sudeste 0 -- -- 82
2018-11-12 16:00:00 19.1 17 Sudeste 36 Sudeste 0 -- -- 78
2018-11-12 15:00:00 19.4 23 Sudeste 36 Sudeste 0 -- -- 75
2018-11-12 14:00:00 20.5 21 Sudeste 34 Sudeste 0 -- -- 74
2018-11-12 13:00:00 20.1 22 Sudeste 36 Sudeste 0 -- -- 75
2018-11-12 12:00:00 19.6 22 Sudeste 41 Sudeste 0 -- -- 79
2018-11-12 11:00:00 19.5 22 Sudeste 39 Sudeste 0 -- -- 82
2018-11-12 10:00:00 18.6 26 Sudeste 39 Sudeste 0 -- -- 86
2018-11-12 09:00:00 17.5 18 Sudeste 29 Sudeste 0 -- -- 91
2018-11-12 08:00:00 16.5 17 Sudeste 34 Sudeste 0 -- -- 94
2018-11-12 07:00:00 16.5 21 Sur 35 Sudeste 0 -- -- 93
2018-11-12 06:00:00 16.4 21 Sudeste 35 Sudeste 0 -- -- 92
2018-11-12 05:00:00 16.2 20 Sudeste 31 Sudeste 0 -- -- 93
2018-11-12 04:00:00 16 19 Sudeste 31 Sudeste 0 -- -- 94
2018-11-12 03:00:00 15.9 18 Sur 31 Sudeste 0 -- -- 92
2018-11-12 02:00:00 16.2 21 Sur 32 Sur 0 -- -- 89
2018-11-12 01:00:00 16.3 21 Sur 32 Sudeste 0 -- -- 89
2018-11-12 00:00:00 16.3 20 Sur 34 Sur 0 -- -- 90
2018-11-11 23:00:00 16.3 22 Sur 35 Sur 0 -- -- 90
2018-11-11 22:00:00 16.3 20 Sur 37 Sur 0 -- -- 89
2018-11-11 21:00:00 16.5 22 Sur 33 Sur 0 -- -- 92
2018-11-11 20:00:00 16.5 19 Sur 33 Sur 0 -- -- 92
2018-11-11 19:00:00 16.5 15 Sur 24 Sur 0 -- -- 93
2018-11-11 18:00:00 16.7 15 Sur 28 Sur 0 -- -- 93
2018-11-11 17:00:00 17.5 19 Sur 36 Sur 0 -- -- 87
2018-11-11 16:00:00 17.8 25 Sur 39 Sur 0 -- -- 86
2018-11-11 15:00:00 17.9 25 Sur 38 Sur 0 -- -- 85
2018-11-11 14:00:00 18.6 23 Sur 35 Sur 0 -- -- 84
2018-11-11 13:00:00 18.3 23 Sudoeste 36 Sudoeste 0 -- -- 84
2018-11-11 12:00:00 18.7 22 Sur 35 Sudoeste 0 -- -- 81
2018-11-11 11:00:00 19 15 Sur 27 Sur 0 -- -- 80
2018-11-11 10:00:00 18 17 Sudoeste 27 Sudoeste 0 -- -- 85
2018-11-11 09:00:00 16.9 9 Sudoeste 17 Sudoeste 0 -- -- 90
2018-11-11 08:00:00 15.1 12 Sudoeste 18 Sudoeste 0 -- -- 95
2018-11-11 07:00:00 14.8 14 Sudoeste 18 Sudoeste 0 -- -- 95
2018-11-11 06:00:00 14.6 9 Sur 13 Sur 0 -- -- 96
2018-11-11 05:00:00 14.1 8 Sur 12 Sur 0 -- -- 97
2018-11-11 04:00:00 14.7 10 Sur 19 Sudoeste 0 -- -- 94
2018-11-11 03:00:00 14.6 11 Sur 14 Sur 0 -- -- 95
2018-11-11 02:00:00 14.7 5 Sur 15 Sudoeste 0 -- -- 93
2018-11-11 01:00:00 15.4 12 Sudoeste 25 Sudoeste 0 -- -- 90
2018-11-11 00:00:00 16 19 Sudoeste 31 Sudoeste 0 -- -- 87
2018-11-10 23:00:00 16 18 Sudoeste 33 Sudoeste 0 -- -- 89
2018-11-10 22:00:00 15.3 11 Sur 26 Sudoeste 0 -- -- 88
2018-11-10 21:00:00 15.8 18 Sudoeste 30 Sudoeste 0 -- -- 81
2018-11-10 20:00:00 15.7 14 Sudoeste 23 Sudoeste 0 -- -- 83
2018-11-10 19:00:00 15.8 17 Sudoeste 27 Sudoeste 0 -- -- 79
2018-11-10 18:00:00 15.5 14 Sur 28 Sudoeste 0 -- -- 82
2018-11-10 17:00:00 17.1 21 Sudoeste 30 Sur 0 -- -- 77
2018-11-10 16:00:00 17.5 19 Sudoeste 35 Sudoeste 0 -- -- 75
2018-11-10 15:00:00 17.8 23 Sudoeste 36 Sudoeste 0 -- -- 75
2018-11-10 14:00:00 17.8 24 Sudoeste 40 Sudoeste 0 -- -- 67
2018-11-10 13:00:00 17.8 21 Sudoeste 33 Sudoeste 0 -- -- 67
2018-11-10 12:00:00 16.8 18 Sur 29 Sudoeste 0 -- -- 71
2018-11-10 11:00:00 16.3 15 Sudoeste 23 Sudoeste 0 -- -- 72
2018-11-10 10:00:00 15.7 10 Sur 14 Sur 0 -- -- 84
2018-11-10 09:00:00 15.3 4 Sudeste 5 Sudeste 0 -- -- 79
2018-11-10 08:00:00 13.3 3 Sudoeste 5 Sudoeste 0 -- -- 84
2018-11-10 07:00:00 13.6 3 Sudoeste 8 Noroeste 0 -- -- 87
2018-11-10 06:00:00 13.9 2 Sudoeste 11 Noroeste 0 -- -- 90
2018-11-10 05:00:00 13.6 6 Oeste 12 Noroeste 0 -- -- 93
2018-11-10 04:00:00 13 3 Oeste 6 Oeste 0 -- -- 95
2018-11-10 03:00:00 12.6 2 Norte 5 Norte 0 -- -- 95
2018-11-10 02:00:00 12.6 7 Norte 11 Nordeste 0 -- -- 96
2018-11-10 01:00:00 11.9 2 Sudoeste 6 Oeste 0 -- -- 96
2018-11-10 00:00:00 11.9 0 Calma 10 Sur 0 -- -- 97
2018-11-09 23:00:00 12.2 6 Sur 15 Sudoeste 0 -- -- 95
2018-11-09 22:00:00 12.1 9 Sudoeste 14 Sur 0 -- -- 95
2018-11-09 21:00:00 12.1 6 Sudeste 12 Sur 0 -- -- 95
2018-11-09 20:00:00 12.5 7 Sur 28 Sudoeste 0 -- -- 94
2018-11-09 19:00:00 12.9 18 Oeste 24 Oeste 0 -- -- 95
2018-11-09 18:00:00 12.9 13 Sudoeste 33 Oeste 0.6 -- -- 95
2018-11-09 17:00:00 12.9 19 Oeste 33 Sudoeste 3 -- -- 94
2018-11-09 16:00:00 12.2 11 Sudoeste 48 Sudoeste 2.2 -- -- 95
2018-11-09 15:00:00 14.6 10 Sudoeste 18 Sudoeste 1 -- -- 91
2018-11-09 14:00:00 16 12 Oeste 25 Sudoeste 0 -- -- 81
2018-11-09 13:00:00 16.5 13 Oeste 37 Sudoeste 0 -- -- 83
2018-11-09 12:00:00 17.1 23 Sudoeste 38 Sudoeste 0 -- -- 81
2018-11-09 11:00:00 16.2 19 Sur 29 Sur 0 -- -- 86
2018-11-09 10:00:00 14.6 12 Sur 22 Sur 1 -- -- 95
2018-11-09 09:00:00 14.2 9 Sur 39 Sudoeste 1.6 -- -- 95
2018-11-09 08:00:00 16.1 19 Sudoeste 33 Sudoeste 0 -- -- 87
2018-11-09 07:00:00 16.1 19 Sudoeste 28 Sudoeste 0 -- -- 91
2018-11-09 06:00:00 16.1 9 Sur 15 Sudeste 0 -- -- 96
2018-11-09 05:00:00 15.8 6 Sur 14 Sudeste 0 -- -- 95
2018-11-09 04:00:00 15.5 10 Sudeste 17 Sudeste 0 -- -- 93
2018-11-09 03:00:00 15.6 11 Sur 24 Sudeste 0 -- -- 91
2018-11-09 02:00:00 15.2 14 Sudeste 23 Sur 0 -- -- 91
2018-11-09 01:00:00 14.5 8 Sudeste 18 Sudeste 0 -- -- 92
2018-11-09 00:00:00 14.9 12 Sudeste 18 Sudeste 0 -- -- 91